Ulan Bator, Mongolia
Current Conditions -  °F | °C
As of 9:30 PM on Friday 24 Oct 2014 (Local Time) from ZMUB Reporting Station
Scattered Clouds Scattered Clouds  
Wind Chill: 34°   Ceiling: Unl
Heat Index: 34°   Visibility: 6mi
Dew Point: 19°   Wind: 0mph
Humidity: 56%   Direction: NA
Pressure: 29.8"   Gusts: NA
Location:  47.92°N, 106.91°E
Report Text: ZMUB 241330Z 00000MPS 9999 FEW033 SCT100 01/M07 Q1009 NOSIG RMK QFE650.0 54 NT
Loading
Personal Weather Stations






























Interactive Weather Map
Tropical Storm Tracking
New forecast layout! Learn more

10-Day Weather Forecast

Advertisements
Track Severe Weather on mobile